createdAt,value
2017-11-27T00:01:35.022Z,4.21
2017-11-27T00:03:36.497Z,4.19
2017-11-27T00:05:38.015Z,4.16
2017-11-27T00:07:39.767Z,4.22
2017-11-27T00:09:41.887Z,4.10
2017-11-27T00:11:44.008Z,4.21
2017-11-27T00:13:45.868Z,4.22
2017-11-27T00:15:47.976Z,4.25
2017-11-27T00:17:50.125Z,4.19
2017-11-27T00:19:51.875Z,4.12
2017-11-27T00:21:53.659Z,4.22
2017-11-27T00:23:55.395Z,4.15
2017-11-27T00:25:57.275Z,4.21
2017-11-27T00:27:59.078Z,4.08
2017-11-27T00:30:00.905Z,4.19
2017-11-27T00:32:03.101Z,4.12
2017-11-27T00:34:04.749Z,4.19
2017-11-27T00:36:06.889Z,4.19
2017-11-27T00:38:09.019Z,4.10
2017-11-27T00:40:10.689Z,4.06
2017-11-27T00:42:12.623Z,4.04
2017-11-27T00:44:14.364Z,4.12
2017-11-27T00:46:16.560Z,4.14
2017-11-27T00:48:18.303Z,4.14
2017-11-27T00:50:20.575Z,4.01
2017-11-27T00:52:22.836Z,4.01
2017-11-27T00:54:24.626Z,4.03
2017-11-27T00:56:26.823Z,3.96
2017-11-27T00:58:28.971Z,4.06
2017-11-27T01:00:30.607Z,4.03
2017-11-27T01:03:13.046Z,4.00
2017-11-27T01:05:14.513Z,3.96
2017-11-27T01:07:20.179Z,3.98
2017-11-27T01:09:21.701Z,3.97
2017-11-27T01:11:23.365Z,3.97
2017-11-27T01:13:25.525Z,4.04
2017-11-27T01:15:27.622Z,4.01
2017-11-27T01:17:29.464Z,4.07
2017-11-27T01:20:15.864Z,4.15
2017-11-27T01:22:17.369Z,4.24
2017-11-27T01:24:18.962Z,4.25
2017-11-27T01:26:20.544Z,4.14
2017-11-27T01:28:22.233Z,4.26
2017-11-27T01:30:23.899Z,4.33
2017-11-27T01:32:25.637Z,4.43
2017-11-27T01:34:27.241Z,4.46
2017-11-27T01:36:28.957Z,4.42
2017-11-27T01:38:31.048Z,4.44
2017-11-27T01:40:32.839Z,4.58
2017-11-27T01:42:34.857Z,4.54
2017-11-27T01:44:36.581Z,4.59
2017-11-27T01:46:38.308Z,4.57
2017-11-27T01:48:40.500Z,4.73
2017-11-27T01:50:42.422Z,4.67
2017-11-27T01:52:44.274Z,4.54
2017-11-27T01:54:46.016Z,4.54
2017-11-27T01:56:48.071Z,4.52
2017-11-27T01:58:49.768Z,4.62
2017-11-27T02:00:51.984Z,4.83
2017-11-27T02:02:53.767Z,4.65
2017-11-27T02:04:55.466Z,4.76
2017-11-27T02:07:37.930Z,4.75
2017-11-27T02:09:39.408Z,4.72
2017-11-27T02:11:40.853Z,4.79
2017-11-27T02:13:42.353Z,4.70
2017-11-27T02:15:43.972Z,4.59
2017-11-27T02:17:45.753Z,4.64
2017-11-27T02:19:48.500Z,4.75
2017-11-27T02:22:32.832Z,4.73
2017-11-27T02:24:35.426Z,4.64
2017-11-27T02:26:36.912Z,4.69
2017-11-27T02:28:38.551Z,4.54
2017-11-27T02:30:40.178Z,4.51
2017-11-27T02:32:41.739Z,4.51
2017-11-27T02:34:43.443Z,4.50
2017-11-27T02:36:45.194Z,4.46
2017-11-27T02:39:26.811Z,4.57
2017-11-27T02:41:29.203Z,4.46
2017-11-27T02:43:30.606Z,4.54
2017-11-27T02:45:32.813Z,4.37
2017-11-27T02:47:35.764Z,4.44
2017-11-27T02:49:37.752Z,4.54
2017-11-27T02:51:39.651Z,4.39
2017-11-27T02:53:41.868Z,4.42
2017-11-27T02:55:43.703Z,4.36
2017-11-27T02:57:45.413Z,4.39
2017-11-27T02:59:47.036Z,4.39
2017-11-27T03:01:48.842Z,4.36
2017-11-27T03:03:50.641Z,4.39
2017-11-27T03:05:52.915Z,4.39
2017-11-27T03:07:54.601Z,4.44
2017-11-27T03:09:56.282Z,4.40
2017-11-27T03:11:58.157Z,4.46
2017-11-27T03:13:59.900Z,4.39
2017-11-27T03:16:01.645Z,4.50
2017-11-27T03:18:03.422Z,4.46
2017-11-27T03:20:05.161Z,4.52
2017-11-27T03:22:06.884Z,4.51
2017-11-27T03:24:09.112Z,4.44
2017-11-27T03:26:54.198Z,4.61
2017-11-27T03:28:55.708Z,4.58
2017-11-27T03:30:57.204Z,4.59
2017-11-27T03:33:43.380Z,4.59
2017-11-27T03:35:44.800Z,4.62
2017-11-27T03:37:46.987Z,4.64
2017-11-27T03:39:48.829Z,4.64
2017-11-27T03:41:51.032Z,4.58
2017-11-27T03:43:53.207Z,4.64
2017-11-27T03:45:54.992Z,4.64
2017-11-27T03:47:56.872Z,4.51
2017-11-27T03:50:38.646Z,4.61
2017-11-27T03:52:40.115Z,4.57
2017-11-27T03:54:41.568Z,4.52
2017-11-27T03:56:44.369Z,4.55
2017-11-27T03:58:45.838Z,4.64
2017-11-27T04:00:47.426Z,4.69
2017-11-27T04:02:49.112Z,4.70
2017-11-27T04:04:50.828Z,4.76
2017-11-27T04:06:52.607Z,4.75
2017-11-27T04:08:54.333Z,4.79
2017-11-27T04:10:56.396Z,4.69
2017-11-27T04:12:58.252Z,4.72
2017-11-27T04:15:40.695Z,4.70
2017-11-27T04:17:43.398Z,4.61
2017-11-27T04:19:45.477Z,4.59
2017-11-27T04:21:47.616Z,4.61
2017-11-27T04:23:49.332Z,4.62
2017-11-27T04:25:51.014Z,4.61
2017-11-27T04:27:53.140Z,4.59
2017-11-27T04:29:54.830Z,4.54
2017-11-27T04:31:56.496Z,4.57
2017-11-27T04:33:58.154Z,4.51
2017-11-27T04:35:59.881Z,4.62
2017-11-27T04:38:01.649Z,4.57
2017-11-27T04:40:03.459Z,4.64
2017-11-27T04:42:05.243Z,4.58
2017-11-27T04:44:07.021Z,4.58
2017-11-27T04:46:50.651Z,4.59
2017-11-27T04:48:52.976Z,4.61
2017-11-27T04:50:54.700Z,4.61
2017-11-27T04:52:56.513Z,4.59
2017-11-27T04:54:58.366Z,4.62
2017-11-27T04:57:00.216Z,4.72
2017-11-27T04:59:02.373Z,4.62
2017-11-27T05:01:46.754Z,4.64
2017-11-27T05:03:48.204Z,4.55
2017-11-27T05:05:49.706Z,4.55
2017-11-27T05:07:51.225Z,4.54
2017-11-27T05:09:52.875Z,4.64
2017-11-27T05:11:54.480Z,4.55
2017-11-27T05:13:56.175Z,4.58
2017-11-27T05:15:58.102Z,4.61
2017-11-27T05:17:59.800Z,4.59
2017-11-27T05:20:01.590Z,4.44
2017-11-27T05:22:03.367Z,4.50
2017-11-27T05:24:05.551Z,4.46
2017-11-27T05:26:07.292Z,4.46
2017-11-27T05:28:08.802Z,4.39
2017-11-27T05:30:10.319Z,4.34
2017-11-27T05:32:12.099Z,4.44
2017-11-27T05:34:14.005Z,4.36
2017-11-27T05:36:15.696Z,4.39
2017-11-27T05:38:17.395Z,4.39
2017-11-27T05:40:19.181Z,4.46
2017-11-27T05:42:20.931Z,4.46
2017-11-27T05:44:22.664Z,4.42
2017-11-27T05:46:24.504Z,4.50
2017-11-27T05:49:07.062Z,4.37
2017-11-27T05:51:08.513Z,4.43
2017-11-27T05:53:09.947Z,4.46
2017-11-27T05:55:12.375Z,4.50
2017-11-27T05:57:14.104Z,4.51
2017-11-27T05:59:15.681Z,4.39
2017-11-27T06:01:17.817Z,4.44
2017-11-27T06:03:19.451Z,4.47
2017-11-27T06:06:03.916Z,4.47
2017-11-27T06:08:05.361Z,4.44
2017-11-27T06:10:06.982Z,4.34
2017-11-27T06:12:08.556Z,4.39
2017-11-27T06:14:10.114Z,4.52
2017-11-27T06:16:11.939Z,4.43
2017-11-27T06:18:13.639Z,4.57
2017-11-27T06:20:15.440Z,4.57
2017-11-27T06:22:58.703Z,4.67
2017-11-27T06:25:00.170Z,4.59
2017-11-27T06:27:02.056Z,4.61
2017-11-27T06:29:03.452Z,4.54
2017-11-27T06:31:05.998Z,4.57
2017-11-27T06:33:07.422Z,4.57
2017-11-27T06:35:09.041Z,4.62
2017-11-27T06:37:10.647Z,4.65
2017-11-27T06:39:12.461Z,4.59
2017-11-27T06:41:14.293Z,4.70
2017-11-27T06:43:15.845Z,4.67
2017-11-27T06:45:17.669Z,4.76
2017-11-27T06:47:19.737Z,4.75
2017-11-27T06:49:21.525Z,4.65
2017-11-27T06:51:23.263Z,4.65
2017-11-27T06:53:24.870Z,4.67
2017-11-27T06:55:27.586Z,4.70
2017-11-27T06:57:29.679Z,4.73
2017-11-27T06:59:31.364Z,4.65
2017-11-27T07:01:33.167Z,4.70
2017-11-27T07:03:34.867Z,4.80
2017-11-27T07:05:36.647Z,4.79
2017-11-27T07:07:38.340Z,4.72
2017-11-27T07:10:20.909Z,4.72
2017-11-27T07:12:22.387Z,4.70
2017-11-27T07:14:24.423Z,4.79
2017-11-27T07:16:26.484Z,4.77
2017-11-27T07:18:28.053Z,4.79
2017-11-27T07:20:29.787Z,4.83
2017-11-27T07:22:31.656Z,4.77
2017-11-27T07:24:33.832Z,4.70
2017-11-27T07:26:35.921Z,4.67
2017-11-27T07:28:37.831Z,4.77
2017-11-27T07:30:40.194Z,4.79
2017-11-27T07:32:41.852Z,4.73
2017-11-27T07:34:43.668Z,4.76
2017-11-27T07:36:45.386Z,4.80
2017-11-27T07:38:47.239Z,4.73
2017-11-27T07:40:49.526Z,4.75
2017-11-27T07:42:51.238Z,4.79
2017-11-27T07:44:53.409Z,4.75
2017-11-27T07:46:55.284Z,4.73
2017-11-27T07:48:56.776Z,4.72
2017-11-27T07:50:58.498Z,4.76
2017-11-27T07:53:00.217Z,4.79
2017-11-27T07:55:02.071Z,4.70
2017-11-27T07:57:03.777Z,4.77
2017-11-27T07:59:05.561Z,4.79
2017-11-27T08:01:07.352Z,4.80
2017-11-27T08:03:09.223Z,4.76
2017-11-27T08:05:11.173Z,4.88
2017-11-27T08:07:13.449Z,4.94
2017-11-27T08:09:15.491Z,4.89
2017-11-27T08:11:58.620Z,4.92
2017-11-27T08:14:00.190Z,4.92
2017-11-27T08:16:01.889Z,4.96
2017-11-27T08:18:03.308Z,4.98
2017-11-27T08:20:04.816Z,5.02
2017-11-27T08:22:06.303Z,4.96
2017-11-27T08:24:07.806Z,5.02
2017-11-27T08:26:09.450Z,4.96
2017-11-27T08:28:11.454Z,5.05
2017-11-27T08:30:12.977Z,5.04
2017-11-27T08:32:14.552Z,5.09
2017-11-27T08:34:16.048Z,5.12
2017-11-27T08:36:17.553Z,5.12
2017-11-27T08:38:19.232Z,5.07
2017-11-27T08:40:20.703Z,5.10
2017-11-27T08:42:22.222Z,5.14
2017-11-27T08:44:23.800Z,5.28
2017-11-27T08:46:25.484Z,5.19
2017-11-27T08:48:27.041Z,5.25
2017-11-27T08:50:29.538Z,5.30
2017-11-27T08:52:31.027Z,5.22
2017-11-27T08:54:32.442Z,5.31
2017-11-27T08:56:33.924Z,5.40
2017-11-27T08:58:35.573Z,5.34
2017-11-27T09:00:37.275Z,5.35
2017-11-27T09:02:38.813Z,5.38
2017-11-27T09:04:40.302Z,5.43
2017-11-27T09:06:41.819Z,5.38
2017-11-27T09:08:43.366Z,5.52
2017-11-27T09:10:44.874Z,5.48
2017-11-27T09:12:46.375Z,5.53
2017-11-27T09:14:47.862Z,5.52
2017-11-27T09:16:49.376Z,5.55
2017-11-27T09:18:51.044Z,5.56
2017-11-27T09:20:52.773Z,5.53
2017-11-27T09:22:54.229Z,5.57
2017-11-27T09:24:55.758Z,5.64
2017-11-27T09:26:57.255Z,5.63
2017-11-27T09:28:58.812Z,5.64
2017-11-27T09:31:00.295Z,5.66
2017-11-27T09:33:01.836Z,5.66
2017-11-27T09:35:04.065Z,5.67
2017-11-27T09:37:06.192Z,5.77
2017-11-27T09:39:07.909Z,5.77
2017-11-27T09:41:10.503Z,5.82
2017-11-27T09:43:12.331Z,5.82
2017-11-27T09:45:14.150Z,5.85
2017-11-27T09:47:15.786Z,5.85
2017-11-27T09:49:17.666Z,5.89
2017-11-27T09:51:20.123Z,5.93
2017-11-27T09:53:22.372Z,5.91
2017-11-27T09:55:24.239Z,5.93
2017-11-27T09:57:26.045Z,5.98
2017-11-27T09:59:28.120Z,6.04
2017-11-27T10:01:29.938Z,6.10
2017-11-27T10:03:31.450Z,6.10
2017-11-27T10:05:32.964Z,6.14
2017-11-27T10:07:35.129Z,6.13
2017-11-27T10:09:37.065Z,6.22
2017-11-27T10:11:38.790Z,6.22
2017-11-27T10:13:40.588Z,6.30
2017-11-27T10:15:42.331Z,6.29
2017-11-27T10:17:44.132Z,6.25
2017-11-27T10:19:45.939Z,6.29
2017-11-27T10:21:47.657Z,6.30
2017-11-27T10:23:49.267Z,6.28
2017-11-27T10:25:50.719Z,6.38
2017-11-27T10:27:52.233Z,6.36
2017-11-27T10:29:53.750Z,6.33
2017-11-27T10:31:55.269Z,6.44
2017-11-27T10:33:56.814Z,6.46
2017-11-27T10:35:58.340Z,6.38
2017-11-27T10:37:59.831Z,6.44
2017-11-27T10:40:01.318Z,6.51
2017-11-27T10:42:02.808Z,6.47
2017-11-27T10:44:04.319Z,6.47
2017-11-27T10:46:05.823Z,6.43
2017-11-27T10:48:07.385Z,6.46
2017-11-27T10:50:08.871Z,6.54
2017-11-27T10:52:10.369Z,6.51
2017-11-27T10:54:11.864Z,6.61
2017-11-27T10:56:13.310Z,6.63
2017-11-27T10:58:14.848Z,6.62
2017-11-27T11:00:16.311Z,6.48
2017-11-27T11:02:17.954Z,6.62
2017-11-27T11:04:19.658Z,6.58
2017-11-27T11:06:21.153Z,6.58
2017-11-27T11:08:22.670Z,6.58
2017-11-27T11:10:24.218Z,6.61
2017-11-27T11:12:25.933Z,6.59
2017-11-27T11:14:27.590Z,6.62
2017-11-27T11:16:29.220Z,6.69
2017-11-27T11:18:30.729Z,6.72
2017-11-27T11:20:32.205Z,6.79
2017-11-27T11:23:14.606Z,6.76
2017-11-27T11:25:16.427Z,6.77
2017-11-27T11:27:17.850Z,6.83
2017-11-27T11:29:19.353Z,6.79
2017-11-27T11:31:20.766Z,6.79
2017-11-27T11:33:22.175Z,6.87
2017-11-27T11:35:23.632Z,6.94
2017-11-27T11:38:05.265Z,6.94
2017-11-27T11:40:06.798Z,6.83
2017-11-27T11:42:08.212Z,6.94
2017-11-27T11:44:10.623Z,6.90
2017-11-27T11:46:11.940Z,6.90
2017-11-27T11:48:13.595Z,6.90
2017-11-27T11:50:15.211Z,6.91
2017-11-27T11:52:17.243Z,6.97
2017-11-27T11:54:18.972Z,6.95
2017-11-27T11:56:20.549Z,6.91
2017-11-27T11:59:06.856Z,6.97
2017-11-27T12:01:08.272Z,7.01
2017-11-27T12:03:09.815Z,7.02
2017-11-27T12:05:11.708Z,7.01
2017-11-27T12:07:13.478Z,7.02
2017-11-27T12:09:15.437Z,7.04
2017-11-27T12:11:17.312Z,7.09
2017-11-27T12:13:19.117Z,7.09
2017-11-27T12:16:07.629Z,7.02
2017-11-27T12:18:09.148Z,7.09
2017-11-27T12:20:11.051Z,7.13
2017-11-27T12:22:12.978Z,7.22
2017-11-27T12:24:14.805Z,7.17
2017-11-27T12:26:16.586Z,7.16
2017-11-27T12:28:18.514Z,7.15
2017-11-27T12:30:20.068Z,7.09
2017-11-27T12:32:21.615Z,7.19
2017-11-27T12:34:23.435Z,7.19
2017-11-27T12:36:25.064Z,7.13
2017-11-27T12:38:26.613Z,7.16
2017-11-27T12:40:28.110Z,7.17
2017-11-27T12:42:29.848Z,7.08
2017-11-27T12:44:31.575Z,7.22
2017-11-27T12:46:33.390Z,7.19
2017-11-27T12:48:35.304Z,7.16
2017-11-27T12:50:37.204Z,7.19
2017-11-27T12:52:39.129Z,7.16
2017-11-27T12:54:41.005Z,7.23
2017-11-27T12:56:42.883Z,7.27
2017-11-27T12:58:44.735Z,7.22
2017-11-27T13:00:46.549Z,7.22
2017-11-27T13:02:48.349Z,7.27
2017-11-27T13:04:50.225Z,7.35
2017-11-27T13:06:52.156Z,7.37
2017-11-27T13:08:54.017Z,7.37
2017-11-27T13:10:55.578Z,7.42
2017-11-27T13:12:57.093Z,7.42
2017-11-27T13:14:58.905Z,7.37
2017-11-27T13:17:00.728Z,7.40
2017-11-27T13:19:43.762Z,7.45
2017-11-27T13:21:45.176Z,7.40
2017-11-27T13:23:46.902Z,7.58
2017-11-27T13:25:48.541Z,7.58
2017-11-27T13:27:50.103Z,7.58
2017-11-27T13:29:51.588Z,7.52
2017-11-27T13:31:53.189Z,7.45
2017-11-27T13:34:39.455Z,7.49
2017-11-27T13:36:41.453Z,7.53
2017-11-27T13:38:43.066Z,7.55
2017-11-27T13:40:44.691Z,7.62
2017-11-27T13:42:46.265Z,7.63
2017-11-27T13:44:47.853Z,7.62
2017-11-27T13:46:49.380Z,7.62
2017-11-27T13:48:51.232Z,7.62
2017-11-27T13:51:34.085Z,7.59
2017-11-27T13:53:35.842Z,7.62
2017-11-27T13:55:37.831Z,7.58
2017-11-27T13:57:39.212Z,7.58
2017-11-27T13:59:40.733Z,7.58
2017-11-27T14:01:42.589Z,7.60
2017-11-27T14:03:44.376Z,7.60
2017-11-27T14:05:46.342Z,7.67
2017-11-27T14:07:48.158Z,7.79
2017-11-27T14:09:50.009Z,7.72
2017-11-27T14:11:51.694Z,7.77
2017-11-27T14:13:53.203Z,7.78
2017-11-27T14:15:55.036Z,7.79
2017-11-27T14:17:56.540Z,7.84
2017-11-27T14:19:58.349Z,7.85
2017-11-27T14:22:00.196Z,7.78
2017-11-27T14:24:01.993Z,7.77
2017-11-27T14:26:03.814Z,7.81
2017-11-27T14:28:05.691Z,7.81
2017-11-27T14:30:07.410Z,7.79
2017-11-27T14:32:09.119Z,7.78
2017-11-27T14:34:10.658Z,7.79
2017-11-27T14:36:12.184Z,7.79
2017-11-27T14:38:13.694Z,7.79
2017-11-27T14:40:15.634Z,7.74
2017-11-27T14:42:17.487Z,7.81
2017-11-27T14:44:19.349Z,7.79
2017-11-27T14:46:21.323Z,7.85
2017-11-27T14:48:23.344Z,7.82
2017-11-27T14:50:25.150Z,7.96
2017-11-27T14:52:26.870Z,7.94
2017-11-27T14:54:28.683Z,7.89
2017-11-27T14:56:30.240Z,7.89
2017-11-27T14:58:31.756Z,7.87
2017-11-27T15:00:33.263Z,7.89
2017-11-27T15:02:34.782Z,7.89
2017-11-27T15:04:36.389Z,7.90
2017-11-27T15:06:38.180Z,7.89
2017-11-27T15:08:40.020Z,7.82
2017-11-27T15:10:41.755Z,7.94
2017-11-27T15:12:43.617Z,7.94
2017-11-27T15:14:45.475Z,7.97
2017-11-27T15:16:47.333Z,7.94
2017-11-27T15:18:49.122Z,7.93
2017-11-27T15:20:51.128Z,7.93
2017-11-27T15:22:52.929Z,7.97
2017-11-27T15:24:54.780Z,7.92
2017-11-27T15:27:37.565Z,7.92
2017-11-27T15:29:39.779Z,7.96
2017-11-27T15:31:41.403Z,7.92
2017-11-27T15:33:43.326Z,7.89
2017-11-27T15:35:45.162Z,7.93
2017-11-27T15:37:47.006Z,7.87
2017-11-27T15:39:48.455Z,7.92
2017-11-27T15:41:50.234Z,7.97
2017-11-27T15:43:52.004Z,7.94
2017-11-27T15:45:53.759Z,7.96
2017-11-27T15:47:55.308Z,7.99
2017-11-27T15:49:56.995Z,8.02
2017-11-27T15:51:58.737Z,7.89
2017-11-27T15:54:00.629Z,7.87
2017-11-27T15:56:02.333Z,7.97
2017-11-27T15:58:03.973Z,7.94
2017-11-27T16:00:05.592Z,8.00
2017-11-27T16:02:07.251Z,8.02
2017-11-27T16:04:08.794Z,7.90
2017-11-27T16:06:10.323Z,8.02
2017-11-27T16:08:11.935Z,7.94
2017-11-27T16:10:13.436Z,7.96
2017-11-27T16:12:15.356Z,7.96
2017-11-27T16:14:17.101Z,7.99
2017-11-27T16:16:19.035Z,7.93
2017-11-27T16:18:20.866Z,7.92
2017-11-27T16:20:22.427Z,7.87
2017-11-27T16:22:23.965Z,8.00
2017-11-27T16:24:25.481Z,7.94
2017-11-27T16:26:27.026Z,7.92
2017-11-27T16:28:28.579Z,7.97
2017-11-27T16:30:30.129Z,8.00
2017-11-27T16:32:31.642Z,8.00
2017-11-27T16:34:33.435Z,7.99
2017-11-27T16:36:35.147Z,8.04
2017-11-27T16:38:36.929Z,7.99
2017-11-27T16:40:38.469Z,8.04
2017-11-27T16:42:39.966Z,8.08
2017-11-27T16:45:22.366Z,8.07
2017-11-27T16:47:23.779Z,8.07
2017-11-27T16:49:25.198Z,8.08
2017-11-27T16:51:26.695Z,7.99
2017-11-27T16:53:28.267Z,8.07
2017-11-27T16:55:29.935Z,7.94
2017-11-27T16:57:31.639Z,7.96
2017-11-27T16:59:33.232Z,7.92
2017-11-27T17:02:15.879Z,8.03
2017-11-27T17:04:18.063Z,8.03
2017-11-27T17:06:19.540Z,8.04
2017-11-27T17:08:21.015Z,8.02
2017-11-27T17:10:22.496Z,8.02
2017-11-27T17:12:24.059Z,8.04
2017-11-27T17:14:25.795Z,8.03
2017-11-27T17:16:27.582Z,7.94
2017-11-27T17:18:29.448Z,7.96
2017-11-27T17:20:31.261Z,7.94
2017-11-27T17:22:32.803Z,7.89
2017-11-27T17:24:34.344Z,7.92
2017-11-27T17:26:36.110Z,7.87
2017-11-27T17:28:37.893Z,7.94
2017-11-27T17:30:40.219Z,7.89
2017-11-27T17:32:42.073Z,7.89
2017-11-27T17:34:43.592Z,7.87
2017-11-27T17:36:45.409Z,7.87
2017-11-27T17:38:47.166Z,7.85
2017-11-27T17:40:48.659Z,7.85
2017-11-27T17:42:50.196Z,7.79
2017-11-27T17:44:51.743Z,7.92
2017-11-27T17:46:53.250Z,7.85
2017-11-27T17:48:54.736Z,7.84
2017-11-27T17:50:56.230Z,7.85
2017-11-27T17:52:57.804Z,7.84
2017-11-27T17:54:59.672Z,7.87
2017-11-27T17:57:01.428Z,7.82
2017-11-27T17:59:03.281Z,7.78
2017-11-27T18:01:04.984Z,7.78
2017-11-27T18:03:06.781Z,7.90
2017-11-27T18:05:55.010Z,7.92
2017-11-27T18:07:58.318Z,7.84
2017-11-27T18:10:00.073Z,7.78
2017-11-27T18:12:01.930Z,7.78
2017-11-27T18:14:03.736Z,7.79
2017-11-27T18:16:05.489Z,7.75
2017-11-27T18:18:07.244Z,7.75
2017-11-27T18:20:49.891Z,7.82
2017-11-27T18:22:51.426Z,7.77
2017-11-27T18:24:53.711Z,7.84
2017-11-27T18:26:55.415Z,7.84
2017-11-27T18:28:57.076Z,7.78
2017-11-27T18:30:58.867Z,7.89
2017-11-27T18:33:00.887Z,7.90
2017-11-27T18:35:02.688Z,7.85
2017-11-27T18:37:46.035Z,7.93
2017-11-27T18:39:50.144Z,7.96
2017-11-27T18:41:51.876Z,7.97
2017-11-27T18:43:53.552Z,7.94
2017-11-27T18:45:55.217Z,7.90
2017-11-27T18:47:56.843Z,7.85
2017-11-27T18:49:58.451Z,7.85
2017-11-27T18:52:00.966Z,7.75
2017-11-27T18:54:02.691Z,7.60
2017-11-27T18:56:04.192Z,7.67
2017-11-27T18:58:05.898Z,7.53
2017-11-27T19:00:07.422Z,7.45
2017-11-27T19:02:08.970Z,7.45
2017-11-27T19:04:12.040Z,7.44
2017-11-27T19:06:13.899Z,7.45
2017-11-27T19:08:15.625Z,7.42
2017-11-27T19:10:17.404Z,7.34
2017-11-27T19:12:19.268Z,7.40
2017-11-27T19:14:20.969Z,7.49
2017-11-27T19:16:22.724Z,7.42
2017-11-27T19:18:24.260Z,7.45
2017-11-27T19:20:25.796Z,7.32
2017-11-27T19:22:27.659Z,7.35
2017-11-27T19:24:29.416Z,7.29
2017-11-27T19:26:31.156Z,7.35
2017-11-27T19:28:32.968Z,7.41
2017-11-27T19:30:34.602Z,7.47
2017-11-27T19:32:36.149Z,7.45
2017-11-27T19:34:37.653Z,7.47
2017-11-27T19:36:39.160Z,7.44
2017-11-27T19:38:40.691Z,7.50
2017-11-27T19:41:23.105Z,7.38
2017-11-27T19:43:24.641Z,7.50
2017-11-27T19:45:26.165Z,7.45
2017-11-27T19:47:27.561Z,7.34
2017-11-27T19:49:29.028Z,7.38
2017-11-27T19:51:30.758Z,7.27
2017-11-27T19:53:32.336Z,7.35
2017-11-27T19:55:34.150Z,7.29
2017-11-27T19:58:20.339Z,7.42
2017-11-27T20:00:22.537Z,7.45
2017-11-27T20:02:24.163Z,7.41
2017-11-27T20:04:25.724Z,7.35
2017-11-27T20:06:27.475Z,7.41
2017-11-27T20:08:28.994Z,7.31
2017-11-27T20:10:30.594Z,7.26
2017-11-27T20:13:13.420Z,7.29
2017-11-27T20:15:14.826Z,7.27
2017-11-27T20:17:18.646Z,7.17
2017-11-27T20:19:20.076Z,7.27
2017-11-27T20:21:21.660Z,7.23
2017-11-27T20:23:23.390Z,7.27
2017-11-27T20:25:25.228Z,7.27
2017-11-27T20:27:27.025Z,7.27
2017-11-27T20:29:28.673Z,7.27
2017-11-27T20:31:30.222Z,7.22
2017-11-27T20:33:31.716Z,7.27
2017-11-27T20:35:33.266Z,7.24
2017-11-27T20:37:35.096Z,7.29
2017-11-27T20:39:36.590Z,7.16
2017-11-27T20:41:38.009Z,7.13
2017-11-27T20:43:39.655Z,7.04
2017-11-27T20:45:41.371Z,6.99
2017-11-27T20:47:43.117Z,7.07
2017-11-27T20:49:44.932Z,7.05
2017-11-27T20:51:46.637Z,7.12
2017-11-27T20:53:48.467Z,7.09
2017-11-27T20:55:50.291Z,7.09
2017-11-27T20:57:51.842Z,7.04
2017-11-27T20:59:53.428Z,7.13
2017-11-27T21:01:54.898Z,7.16
2017-11-27T21:03:56.409Z,7.15
2017-11-27T21:05:57.900Z,7.12
2017-11-27T21:07:59.433Z,7.09
2017-11-27T21:10:01.200Z,7.02
2017-11-27T21:12:03.009Z,7.01
2017-11-27T21:14:04.660Z,6.90
2017-11-27T21:16:06.169Z,6.89
2017-11-27T21:18:07.725Z,6.94
2017-11-27T21:20:09.259Z,6.91
2017-11-27T21:22:10.828Z,6.89
2017-11-27T21:24:12.665Z,6.79
2017-11-27T21:26:14.486Z,6.95
2017-11-27T21:28:16.265Z,6.86
2017-11-27T21:30:19.004Z,6.86
2017-11-27T21:32:20.741Z,6.84
2017-11-27T21:34:24.065Z,6.94
2017-11-27T21:36:25.285Z,6.84
2017-11-27T21:38:27.041Z,6.73
2017-11-27T21:40:28.734Z,6.63
2017-11-27T21:42:30.571Z,6.68
2017-11-27T21:44:32.408Z,6.66
2017-11-27T21:46:34.296Z,6.68
2017-11-27T21:49:19.188Z,6.63
2017-11-27T21:51:20.827Z,6.65
2017-11-27T21:53:22.574Z,6.46
2017-11-27T21:55:25.511Z,6.54
2017-11-27T21:57:27.261Z,6.68
2017-11-27T21:59:29.046Z,6.69
2017-11-27T22:01:30.943Z,6.77
2017-11-27T22:03:32.623Z,6.81
2017-11-27T22:05:34.675Z,6.73
2017-11-27T22:07:36.539Z,6.72
2017-11-27T22:09:38.358Z,6.68
2017-11-27T22:11:40.063Z,6.73
2017-11-27T22:13:41.826Z,6.77
2017-11-27T22:15:43.330Z,6.83
2017-11-27T22:17:45.106Z,6.73
2017-11-27T22:19:47.168Z,6.81
2017-11-27T22:21:49.386Z,6.81
2017-11-27T22:23:51.387Z,6.72
2017-11-27T22:25:53.470Z,6.87
2017-11-27T22:27:56.075Z,6.84
2017-11-27T22:29:59.601Z,6.76
2017-11-27T22:32:01.471Z,6.80
2017-11-27T22:34:03.043Z,6.65
2017-11-27T22:36:04.839Z,6.66
2017-11-27T22:38:06.613Z,6.59
2017-11-27T22:40:08.498Z,6.69
2017-11-27T22:42:11.046Z,6.69
2017-11-27T22:44:12.753Z,6.66
2017-11-27T22:46:14.591Z,6.61
2017-11-27T22:48:17.176Z,6.58
2017-11-27T22:50:18.761Z,6.56
2017-11-27T22:52:20.368Z,6.61
2017-11-27T22:54:22.090Z,6.59
2017-11-27T22:56:23.837Z,6.54
2017-11-27T22:58:26.354Z,6.58
2017-11-27T23:00:28.093Z,6.63
2017-11-27T23:02:29.830Z,6.61
2017-11-27T23:04:31.629Z,6.62
2017-11-27T23:06:33.488Z,6.59
2017-11-27T23:08:35.042Z,6.63
2017-11-27T23:10:36.707Z,6.58
2017-11-27T23:12:38.341Z,6.54
2017-11-27T23:14:39.900Z,6.58
2017-11-27T23:16:41.428Z,6.47
2017-11-27T23:18:43.278Z,6.46
2017-11-27T23:20:45.259Z,6.47
2017-11-27T23:23:30.595Z,6.51
2017-11-27T23:25:32.170Z,6.44
2017-11-27T23:27:34.001Z,6.44
2017-11-27T23:29:36.575Z,6.41
2017-11-27T23:31:38.077Z,6.33
2017-11-27T23:33:39.548Z,6.35
2017-11-27T23:35:41.434Z,6.38
2017-11-27T23:37:42.987Z,6.35
2017-11-27T23:39:44.689Z,6.33
2017-11-27T23:41:46.444Z,6.26
2017-11-27T23:43:48.157Z,6.30
2017-11-27T23:45:50.115Z,6.35
2017-11-27T23:47:51.612Z,6.43
2017-11-27T23:49:53.086Z,6.48
2017-11-27T23:51:54.586Z,6.44
2017-11-27T23:53:56.380Z,6.41
2017-11-27T23:56:39.058Z,6.40
2017-11-27T23:58:40.565Z,6.46
